sensor_id;sensor_type;location;lat;lon;timestamp;pressure;altitude;pressure_sealevel;temperature
11926;BMP180;6022;48.768;18.608;2024-03-08T00:00:41;98680.56;;;4.93
11926;BMP180;6022;48.768;18.608;2024-03-08T00:03:14;98684.59;;;4.97
11926;BMP180;6022;48.768;18.608;2024-03-08T00:05:44;98676.13;;;5.00
11926;BMP180;6022;48.768;18.608;2024-03-08T00:08:13;98679.31;;;5.03
11926;BMP180;6022;48.768;18.608;2024-03-08T00:10:44;98676.19;;;4.98
11926;BMP180;6022;48.768;18.608;2024-03-08T00:13:15;98683.78;;;4.97
11926;BMP180;6022;48.768;18.608;2024-03-08T00:15:44;98679.91;;;4.88
11926;BMP180;6022;48.768;18.608;2024-03-08T00:18:16;98679.03;;;4.89
11926;BMP180;6022;48.768;18.608;2024-03-08T00:20:44;98679.06;;;4.88
11926;BMP180;6022;48.768;18.608;2024-03-08T00:23:13;98682.34;;;4.90
11926;BMP180;6022;48.768;18.608;2024-03-08T00:25:43;98680.88;;;4.85
11926;BMP180;6022;48.768;18.608;2024-03-08T00:28:12;98679.91;;;4.88
11926;BMP180;6022;48.768;18.608;2024-03-08T00:30:43;98683.28;;;4.88
11926;BMP180;6022;48.768;18.608;2024-03-08T00:33:13;98676.50;;;4.89
11926;BMP180;6022;48.768;18.608;2024-03-08T00:35:42;98678.16;;;4.90
11926;BMP180;6022;48.768;18.608;2024-03-08T00:38:13;98679.44;;;4.79
11926;BMP180;6022;48.768;18.608;2024-03-08T00:40:42;98673.53;;;4.80
11926;BMP180;6022;48.768;18.608;2024-03-08T00:43:13;98670.00;;;4.84
11926;BMP180;6022;48.768;18.608;2024-03-08T00:45:42;98679.50;;;4.78
11926;BMP180;6022;48.768;18.608;2024-03-08T00:48:11;98672.72;;;4.80
11926;BMP180;6022;48.768;18.608;2024-03-08T00:50:40;98667.91;;;4.74
11926;BMP180;6022;48.768;18.608;2024-03-08T00:53:08;98670.25;;;4.78
11926;BMP180;6022;48.768;18.608;2024-03-08T00:55:39;98673.47;;;4.82
11926;BMP180;6022;48.768;18.608;2024-03-08T00:58:09;98670.25;;;4.78
11926;BMP180;6022;48.768;18.608;2024-03-08T01:00:38;98659.44;;;4.76
11926;BMP180;6022;48.768;18.608;2024-03-08T01:03:09;98659.97;;;4.84
11926;BMP180;6022;48.768;18.608;2024-03-08T01:05:39;98651.84;;;4.78
11926;BMP180;6022;48.768;18.608;2024-03-08T01:08:08;98650.44;;;4.71
11926;BMP180;6022;48.768;18.608;2024-03-08T01:10:39;98649.63;;;4.70
11926;BMP180;6022;48.768;18.608;2024-03-08T01:13:07;98643.16;;;4.63
11926;BMP180;6022;48.768;18.608;2024-03-08T01:15:37;98647.25;;;4.66
11926;BMP180;6022;48.768;18.608;2024-03-08T01:18:10;98648.09;;;4.66
11926;BMP180;6022;48.768;18.608;2024-03-08T01:20:40;98648.72;;;4.71
11926;BMP180;6022;48.768;18.608;2024-03-08T01:23:09;98650.25;;;4.75
11926;BMP180;6022;48.768;18.608;2024-03-08T01:25:39;98648.09;;;4.66
11926;BMP180;6022;48.768;18.608;2024-03-08T01:28:09;98660.47;;;4.71
11926;BMP180;6022;48.768;18.608;2024-03-08T01:30:37;98650.31;;;4.74
11926;BMP180;6022;48.768;18.608;2024-03-08T01:33:07;98656.88;;;4.78
11926;BMP180;6022;48.768;18.608;2024-03-08T01:35:35;98645.97;;;4.77
11926;BMP180;6022;48.768;18.608;2024-03-08T01:38:03;98653.50;;;4.77
11926;BMP180;6022;48.768;18.608;2024-03-08T01:40:34;98646.09;;;4.74
11926;BMP180;6022;48.768;18.608;2024-03-08T01:43:28;98639.38;;;4.75
11926;BMP180;6022;48.768;18.608;2024-03-08T01:45:58;98648.56;;;4.76
11926;BMP180;6022;48.768;18.608;2024-03-08T01:48:32;98648.63;;;4.74
11926;BMP180;6022;48.768;18.608;2024-03-08T01:51:00;98640.31;;;4.72
11926;BMP180;6022;48.768;18.608;2024-03-08T01:53:29;98647.97;;;4.69
11926;BMP180;6022;48.768;18.608;2024-03-08T01:56:02;98642.06;;;4.70
11926;BMP180;6022;48.768;18.608;2024-03-08T01:58:31;98640.47;;;4.68
11926;BMP180;6022;48.768;18.608;2024-03-08T02:01:04;98640.47;;;4.68
11926;BMP180;6022;48.768;18.608;2024-03-08T02:03:33;98629.75;;;4.64
11926;BMP180;6022;48.768;18.608;2024-03-08T02:06:01;98628.09;;;4.63
11926;BMP180;6022;48.768;18.608;2024-03-08T02:08:30;98624.09;;;4.58
11926;BMP180;6022;48.768;18.608;2024-03-08T02:11:01;98625.75;;;4.59
11926;BMP180;6022;48.768;18.608;2024-03-08T02:13:32;98626.56;;;4.59
11926;BMP180;6022;48.768;18.608;2024-03-08T02:16:02;98627.38;;;4.60
11926;BMP180;6022;48.768;18.608;2024-03-08T02:18:31;98615.00;;;4.55
11926;BMP180;6022;48.768;18.608;2024-03-08T02:21:03;98624.25;;;4.55
11926;BMP180;6022;48.768;18.608;2024-03-08T02:23:35;98626.56;;;4.59
11926;BMP180;6022;48.768;18.608;2024-03-08T02:26:05;98618.38;;;4.54
11926;BMP180;6022;48.768;18.608;2024-03-08T02:28:36;98616.84;;;4.50
11926;BMP180;6022;48.768;18.608;2024-03-08T02:31:06;98621.00;;;4.51
11926;BMP180;6022;48.768;18.608;2024-03-08T02:33:36;98625.28;;;4.50
11926;BMP180;6022;48.768;18.608;2024-03-08T02:36:05;98620.97;;;4.53
11926;BMP180;6022;48.768;18.608;2024-03-08T02:38:34;98631.00;;;4.53
11926;BMP180;6022;48.768;18.608;2024-03-08T02:41:03;98623.53;;;4.51
11926;BMP180;6022;48.768;18.608;2024-03-08T02:43:32;98615.47;;;4.44
11926;BMP180;6022;48.768;18.608;2024-03-08T02:46:02;98623.09;;;4.41
11926;BMP180;6022;48.768;18.608;2024-03-08T02:48:30;98618.81;;;4.43
11926;BMP180;6022;48.768;18.608;2024-03-08T02:50:59;98622.75;;;4.50
11926;BMP180;6022;48.768;18.608;2024-03-08T02:53:27;98626.03;;;4.51
11926;BMP180;6022;48.768;18.608;2024-03-08T02:55:56;98628.69;;;4.47
11926;BMP180;6022;48.768;18.608;2024-03-08T02:58:25;98626.91;;;4.50
11926;BMP180;6022;48.768;18.608;2024-03-08T03:00:54;98628.56;;;4.51
11926;BMP180;6022;48.768;18.608;2024-03-08T03:03:23;98629.34;;;4.52
11926;BMP180;6022;48.768;18.608;2024-03-08T03:05:52;98616.75;;;4.53
11926;BMP180;6022;48.768;18.608;2024-03-08T03:08:25;98625.84;;;4.56
11926;BMP180;6022;48.768;18.608;2024-03-08T03:10:57;98620.97;;;4.53
11926;BMP180;6022;48.768;18.608;2024-03-08T03:13:28;98625.03;;;4.55
11926;BMP180;6022;48.768;18.608;2024-03-08T03:16:00;98627.56;;;4.55
11926;BMP180;6022;48.768;18.608;2024-03-08T03:18:28;98626.66;;;4.56
11926;BMP180;6022;48.768;18.608;2024-03-08T03:20:59;98633.34;;;4.57
11926;BMP180;6022;48.768;18.608;2024-03-08T03:23:27;98636.94;;;4.50
11926;BMP180;6022;48.768;18.608;2024-03-08T03:25:55;98627.84;;;4.48
11926;BMP180;6022;48.768;18.608;2024-03-08T03:28:27;98632.72;;;4.51
11926;BMP180;6022;48.768;18.608;2024-03-08T03:30:56;98629.34;;;4.52
11926;BMP180;6022;48.768;18.608;2024-03-08T03:33:26;98638.59;;;4.51
11926;BMP180;6022;48.768;18.608;2024-03-08T03:35:55;98632.97;;;4.45
11926;BMP180;6022;48.768;18.608;2024-03-08T03:38:24;98638.75;;;4.47
11926;BMP180;6022;48.768;18.608;2024-03-08T03:40:53;98637.06;;;4.48
11926;BMP180;6022;48.768;18.608;2024-03-08T03:43:26;98639.50;;;4.49
11926;BMP180;6022;48.768;18.608;2024-03-08T03:45:54;98642.09;;;4.48
11926;BMP180;6022;48.768;18.608;2024-03-08T03:48:23;98638.16;;;4.41
11926;BMP180;6022;48.768;18.608;2024-03-08T03:50:52;98637.22;;;4.43
11926;BMP180;6022;48.768;18.608;2024-03-08T03:53:20;98639.69;;;4.45
11926;BMP180;6022;48.768;18.608;2024-03-08T03:55:50;98642.09;;;4.48
11926;BMP180;6022;48.768;18.608;2024-03-08T03:58:21;98632.16;;;4.45
11926;BMP180;6022;48.768;18.608;2024-03-08T04:00:51;98638.81;;;4.46
11926;BMP180;6022;48.768;18.608;2024-03-08T04:03:20;98640.25;;;4.51
11926;BMP180;6022;48.768;18.608;2024-03-08T04:05:50;98628.78;;;4.46
11926;BMP180;6022;48.768;18.608;2024-03-08T04:08:26;98632.97;;;4.45
11926;BMP180;6022;48.768;18.608;2024-03-08T04:10:56;98632.81;;;4.50
11926;BMP180;6022;48.768;18.608;2024-03-08T04:13:26;98629.59;;;4.46
11926;BMP180;6022;48.768;18.608;2024-03-08T04:15:55;98632.16;;;4.45
11926;BMP180;6022;48.768;18.608;2024-03-08T04:18:25;98641.97;;;4.50
11926;BMP180;6022;48.768;18.608;2024-03-08T04:20:54;98639.41;;;4.52
11926;BMP180;6022;48.768;18.608;2024-03-08T04:23:23;98647.00;;;4.50
11926;BMP180;6022;48.768;18.608;2024-03-08T04:25:52;98648.03;;;4.45
11926;BMP180;6022;48.768;18.608;2024-03-08T04:28:20;98641.34;;;4.46
11926;BMP180;6022;48.768;18.608;2024-03-08T04:30:57;98645.47;;;4.47
11926;BMP180;6022;48.768;18.608;2024-03-08T04:33:27;98643.91;;;4.44
11926;BMP180;6022;48.768;18.608;2024-03-08T04:35:57;98647.22;;;4.45
11926;BMP180;6022;48.768;18.608;2024-03-08T04:38:25;98647.13;;;4.48
11926;BMP180;6022;48.768;18.608;2024-03-08T04:40:55;98642.28;;;4.42
11926;BMP180;6022;48.768;18.608;2024-03-08T04:43:24;98650.81;;;4.38
11926;BMP180;6022;48.768;18.608;2024-03-08T04:45:58;98654.09;;;4.40
11926;BMP180;6022;48.768;18.608;2024-03-08T04:48:29;98647.66;;;4.33
11926;BMP180;6022;48.768;18.608;2024-03-08T04:50:58;98650.47;;;4.24
11926;BMP180;6022;48.768;18.608;2024-03-08T04:53:28;98649.44;;;4.29
11926;BMP180;6022;48.768;18.608;2024-03-08T04:55:59;98652.94;;;4.25
11926;BMP180;6022;48.768;18.608;2024-03-08T04:58:29;98661.19;;;4.29
11926;BMP180;6022;48.768;18.608;2024-03-08T05:00:56;98657.91;;;4.27
11926;BMP180;6022;48.768;18.608;2024-03-08T05:03:27;98656.75;;;4.35
11926;BMP180;6022;48.768;18.608;2024-03-08T05:05:55;98668.34;;;4.39
11926;BMP180;6022;48.768;18.608;2024-03-08T05:08:24;98660.16;;;4.34
11926;BMP180;6022;48.768;18.608;2024-03-08T05:10:55;98659.88;;;4.42
11926;BMP180;6022;48.768;18.608;2024-03-08T05:13:24;98659.81;;;4.43
11926;BMP180;6022;48.768;18.608;2024-03-08T05:15:53;98669.81;;;4.45
11926;BMP180;6022;48.768;18.608;2024-03-08T05:18:22;98671.38;;;4.47
11926;BMP180;6022;48.768;18.608;2024-03-08T05:20:51;98666.38;;;4.47
11926;BMP180;6022;48.768;18.608;2024-03-08T05:23:21;98672.22;;;4.48
11926;BMP180;6022;48.768;18.608;2024-03-08T05:25:52;98670.47;;;4.50
11926;BMP180;6022;48.768;18.608;2024-03-08T05:28:21;98658.06;;;4.45
11926;BMP180;6022;48.768;18.608;2024-03-08T05:30:54;98665.38;;;4.51
11926;BMP180;6022;48.768;18.608;2024-03-08T05:33:24;98672.88;;;4.52
11926;BMP180;6022;48.768;18.608;2024-03-08T05:35:53;98671.19;;;4.53
11926;BMP180;6022;48.768;18.608;2024-03-08T05:38:22;98674.47;;;4.55
11926;BMP180;6022;48.768;18.608;2024-03-08T05:40:53;98668.59;;;4.54
11926;BMP180;6022;48.768;18.608;2024-03-08T05:43:25;98671.06;;;4.56
11926;BMP180;6022;48.768;18.608;2024-03-08T05:45:55;98674.41;;;4.56
11926;BMP180;6022;48.768;18.608;2024-03-08T05:48:24;98674.28;;;4.59
11926;BMP180;6022;48.768;18.608;2024-03-08T05:50:53;98681.03;;;4.59
11926;BMP180;6022;48.768;18.608;2024-03-08T05:53:25;98690.13;;;4.61
11926;BMP180;6022;48.768;18.608;2024-03-08T05:55:56;98676.09;;;4.56
11926;BMP180;6022;48.768;18.608;2024-03-08T05:58:26;98680.34;;;4.54
11926;BMP180;6022;48.768;18.608;2024-03-08T06:00:58;98683.69;;;4.54
11926;BMP180;6022;48.768;18.608;2024-03-08T06:03:31;98683.69;;;4.54
11926;BMP180;6022;48.768;18.608;2024-03-08T06:06:00;98691.38;;;4.50
11926;BMP180;6022;48.768;18.608;2024-03-08T06:08:29;98688.94;;;4.49
11926;BMP180;6022;48.768;18.608;2024-03-08T06:10:58;98688.88;;;4.50
11926;BMP180;6022;48.768;18.608;2024-03-08T06:13:34;98685.56;;;4.50
11926;BMP180;6022;48.768;18.608;2024-03-08T06:16:06;98690.81;;;4.44
11926;BMP180;6022;48.768;18.608;2024-03-08T06:18:37;98684.88;;;4.45
11926;BMP180;6022;48.768;18.608;2024-03-08T06:21:06;98687.41;;;4.45
11926;BMP180;6022;48.768;18.608;2024-03-08T06:23:36;98694.16;;;4.43
11926;BMP180;6022;48.768;18.608;2024-03-08T06:26:07;98686.81;;;4.38
11926;BMP180;6022;48.768;18.608;2024-03-08T06:28:37;98688.44;;;4.39
11926;BMP180;6022;48.768;18.608;2024-03-08T06:31:05;98690.31;;;4.34
11926;BMP180;6022;48.768;18.608;2024-03-08T06:33:35;98694.59;;;4.31
11926;BMP180;6022;48.768;18.608;2024-03-08T06:36:04;98686.03;;;4.36
11926;BMP180;6022;48.768;18.608;2024-03-08T06:38:34;98690.47;;;4.28
11926;BMP180;6022;48.768;18.608;2024-03-08T06:41:05;98697.72;;;4.37
11926;BMP180;6022;48.768;18.608;2024-03-08T06:43:35;98700.75;;;4.45
11926;BMP180;6022;48.768;18.608;2024-03-08T06:46:04;98692.41;;;4.45
11926;BMP180;6022;48.768;18.608;2024-03-08T06:48:35;98687.50;;;4.42
11926;BMP180;6022;48.768;18.608;2024-03-08T06:51:08;98693.19;;;4.47
11926;BMP180;6022;48.768;18.608;2024-03-08T06:53:40;98700.50;;;4.52
11926;BMP180;6022;48.768;18.608;2024-03-08T06:56:11;98702.88;;;4.57
11926;BMP180;6022;48.768;18.608;2024-03-08T06:58:40;98707.50;;;4.67
11926;BMP180;6022;48.768;18.608;2024-03-08T07:01:08;98707.72;;;4.61
11926;BMP180;6022;48.768;18.608;2024-03-08T07:03:43;98713.63;;;4.60
11926;BMP180;6022;48.768;18.608;2024-03-08T07:06:13;98707.72;;;4.61
11926;BMP180;6022;48.768;18.608;2024-03-08T07:08:48;98710.13;;;4.64
11926;BMP180;6022;48.768;18.608;2024-03-08T07:11:16;98709.16;;;4.68
11926;BMP180;6022;48.768;18.608;2024-03-08T07:13:49;98703.84;;;4.76
11926;BMP180;6022;48.768;18.608;2024-03-08T07:16:17;98706.50;;;4.71
11926;BMP180;6022;48.768;18.608;2024-03-08T07:18:48;98703.38;;;4.66
11926;BMP180;6022;48.768;18.608;2024-03-08T07:21:20;98701.84;;;4.62
11926;BMP180;6022;48.768;18.608;2024-03-08T07:23:49;98700.50;;;4.75
11926;BMP180;6022;48.768;18.608;2024-03-08T07:26:31;98699.31;;;4.85
11926;BMP180;6022;48.768;18.608;2024-03-08T07:28:59;98689.31;;;4.84
11926;BMP180;6022;48.768;18.608;2024-03-08T07:31:27;98701.38;;;4.97
11926;BMP180;6022;48.768;18.608;2024-03-08T07:34:25;98694.88;;;5.13
11926;BMP180;6022;48.768;18.608;2024-03-08T07:36:59;98694.78;;;5.16
11926;BMP180;6022;48.768;18.608;2024-03-08T07:39:33;98688.72;;;5.21
11926;BMP180;6022;48.768;18.608;2024-03-08T07:42:03;98691.34;;;5.39
11926;BMP180;6022;48.768;18.608;2024-03-08T07:44:34;98700.66;;;5.37
11926;BMP180;6022;48.768;18.608;2024-03-08T07:50:57;98696.41;;;5.59
11926;BMP180;6022;48.768;18.608;2024-03-08T07:53:34;98693.97;;;5.79
11926;BMP180;6022;48.768;18.608;2024-03-08T08:01:01;98687.88;;;5.84
11926;BMP180;6022;48.768;18.608;2024-03-08T08:04:07;98702.53;;;5.75
11926;BMP180;6022;48.768;18.608;2024-03-08T08:07:03;98696.47;;;5.79
11926;BMP180;6022;48.768;18.608;2024-03-08T08:10:08;98691.25;;;5.83
11926;BMP180;6022;48.768;18.608;2024-03-08T08:13:05;98696.03;;;6.09
11926;BMP180;6022;48.768;18.608;2024-03-08T08:16:14;98694.66;;;6.60
11926;BMP180;6022;48.768;18.608;2024-03-08T08:19:48;98685.59;;;7.11
11926;BMP180;6022;48.768;18.608;2024-03-08T08:22:50;98691.47;;;7.11
11926;BMP180;6022;48.768;18.608;2024-03-08T08:25:46;98692.22;;;7.13
11926;BMP180;6022;48.768;18.608;2024-03-08T08:29:05;98689.34;;;7.55
11926;BMP180;6022;48.768;18.608;2024-03-08T08:32:11;98679.91;;;7.24
11926;BMP180;6022;48.768;18.608;2024-03-08T08:35:55;98687.66;;;8.06
11926;BMP180;6022;48.768;18.608;2024-03-08T08:38:37;98686.19;;;8.51
11926;BMP180;6022;48.768;18.608;2024-03-08T08:41:41;98678.22;;;9.21
11926;BMP180;6022;48.768;18.608;2024-03-08T08:44:35;98668.25;;;8.88
11926;BMP180;6022;48.768;18.608;2024-03-08T08:47:27;98663.31;;;8.22
11926;BMP180;6022;48.768;18.608;2024-03-08T08:50:12;98663.66;;;7.98
11926;BMP180;6022;48.768;18.608;2024-03-08T08:56:18;98673.41;;;8.05
11926;BMP180;6022;48.768;18.608;2024-03-08T08:58:47;98670.06;;;7.71
11926;BMP180;6022;48.768;18.608;2024-03-08T09:01:20;98678.50;;;7.53
11926;BMP180;6022;48.768;18.608;2024-03-08T09:03:51;98672.03;;;7.48
11926;BMP180;6022;48.768;18.608;2024-03-08T09:06:20;98672.84;;;7.49
11926;BMP180;6022;48.768;18.608;2024-03-08T09:08:47;98668.13;;;7.76
11926;BMP180;6022;48.768;18.608;2024-03-08T09:11:15;98660.72;;;7.90
11926;BMP180;6022;48.768;18.608;2024-03-08T09:16:46;98656.03;;;8.48
11926;BMP180;6022;48.768;18.608;2024-03-08T09:19:14;98661.53;;;8.71
11926;BMP180;6022;48.768;18.608;2024-03-08T09:21:44;98650.66;;;8.54
11926;BMP180;6022;48.768;18.608;2024-03-08T09:24:55;98649.34;;;8.63
11926;BMP180;6022;48.768;18.608;2024-03-08T09:27:26;98653.47;;;8.65
11926;BMP180;6022;48.768;18.608;2024-03-08T09:31:13;98645.72;;;8.36
11926;BMP180;6022;48.768;18.608;2024-03-08T09:35:23;98643.88;;;8.39
11926;BMP180;6022;48.768;18.608;2024-03-08T09:37:52;98649.00;;;8.53
11926;BMP180;6022;48.768;18.608;2024-03-08T09:40:48;98647.41;;;8.98
11926;BMP180;6022;48.768;18.608;2024-03-08T09:43:17;98649.44;;;9.22
11926;BMP180;6022;48.768;18.608;2024-03-08T09:45:50;98655.66;;;9.32
11926;BMP180;6022;48.768;18.608;2024-03-08T09:48:19;98649.88;;;9.30
11926;BMP180;6022;48.768;18.608;2024-03-08T09:50:50;98646.16;;;9.36
11926;BMP180;6022;48.768;18.608;2024-03-08T09:53:20;98651.03;;;9.25
11926;BMP180;6022;48.768;18.608;2024-03-08T09:55:58;98652.66;;;9.10
11926;BMP180;6022;48.768;18.608;2024-03-08T09:58:27;98655.19;;;8.80
11926;BMP180;6022;48.768;18.608;2024-03-08T10:01:01;98655.25;;;8.63
11926;BMP180;6022;48.768;18.608;2024-03-08T10:03:30;98650.91;;;8.50
11926;BMP180;6022;48.768;18.608;2024-03-08T10:06:03;98653.28;;;8.68
11926;BMP180;6022;48.768;18.608;2024-03-08T10:08:34;98655.88;;;8.51
11926;BMP180;6022;48.768;18.608;2024-03-08T10:11:07;98660.69;;;8.56
11926;BMP180;6022;48.768;18.608;2024-03-08T10:13:37;98661.69;;;8.36
11926;BMP180;6022;48.768;18.608;2024-03-08T10:16:06;98663.81;;;8.28
11926;BMP180;6022;48.768;18.608;2024-03-08T10:19:10;98663.38;;;8.21
11926;BMP180;6022;48.768;18.608;2024-03-08T10:21:53;98670.63;;;8.43
11926;BMP180;6022;48.768;18.608;2024-03-08T10:25:22;98664.03;;;8.56
11926;BMP180;6022;48.768;18.608;2024-03-08T10:28:04;98670.88;;;8.54
11926;BMP180;6022;48.768;18.608;2024-03-08T10:31:04;98666.97;;;8.49
11926;BMP180;6022;48.768;18.608;2024-03-08T10:33:34;98662.53;;;8.37
11926;BMP180;6022;48.768;18.608;2024-03-08T10:36:02;98660.44;;;8.60
11926;BMP180;6022;48.768;18.608;2024-03-08T10:38:37;98661.38;;;8.59
11926;BMP180;6022;48.768;18.608;2024-03-08T10:41:07;98665.03;;;8.69
11926;BMP180;6022;48.768;18.608;2024-03-08T10:43:52;98659.66;;;8.90
11926;BMP180;6022;48.768;18.608;2024-03-08T10:46:58;98659.38;;;9.11
11926;BMP180;6022;48.768;18.608;2024-03-08T10:49:41;98655.91;;;9.28
11926;BMP180;6022;48.768;18.608;2024-03-08T10:52:12;98664.53;;;9.39
11926;BMP180;6022;48.768;18.608;2024-03-08T10:54:43;98649.19;;;9.42
11926;BMP180;6022;48.768;18.608;2024-03-08T10:57:14;98656.91;;;9.54
11926;BMP180;6022;48.768;18.608;2024-03-08T10:59:47;98654.53;;;9.67
11926;BMP180;6022;48.768;18.608;2024-03-08T11:02:20;98649.75;;;9.76
11926;BMP180;6022;48.768;18.608;2024-03-08T11:04:52;98645.53;;;9.90
11926;BMP180;6022;48.768;18.608;2024-03-08T11:07:22;98643.97;;;10.03
11926;BMP180;6022;48.768;18.608;2024-03-08T11:09:50;98641.00;;;10.11
11926;BMP180;6022;48.768;18.608;2024-03-08T11:12:28;98643.63;;;10.23
11926;BMP180;6022;48.768;18.608;2024-03-08T11:15:00;98641.38;;;10.32
11926;BMP180;6022;48.768;18.608;2024-03-08T11:19:58;98630.22;;;10.35
11926;BMP180;6022;48.768;18.608;2024-03-08T11:22:33;98635.75;;;10.41
11926;BMP180;6022;48.768;18.608;2024-03-08T11:25:39;98625.50;;;10.56
11926;BMP180;6022;48.768;18.608;2024-03-08T11:28:20;98634.72;;;10.85
11926;BMP180;6022;48.768;18.608;2024-03-08T11:33:40;98616.41;;;11.46
11926;BMP180;6022;48.768;18.608;2024-03-08T11:36:24;98614.63;;;11.61
11926;BMP180;6022;48.768;18.608;2024-03-08T11:38:55;98599.78;;;11.67
11926;BMP180;6022;48.768;18.608;2024-03-08T11:41:27;98610.34;;;11.09
11926;BMP180;6022;48.768;18.608;2024-03-08T11:44:05;98607.66;;;10.98
11926;BMP180;6022;48.768;18.608;2024-03-08T11:46:36;98600.78;;;11.00
11926;BMP180;6022;48.768;18.608;2024-03-08T11:49:05;98593.69;;;11.43
11926;BMP180;6022;48.768;18.608;2024-03-08T11:51:33;98591.28;;;11.93
11926;BMP180;6022;48.768;18.608;2024-03-08T11:54:15;98584.56;;;11.79
11926;BMP180;6022;48.768;18.608;2024-03-08T11:56:56;98581.91;;;11.81
11926;BMP180;6022;48.768;18.608;2024-03-08T12:00:01;98581.72;;;11.84
11926;BMP180;6022;48.768;18.608;2024-03-08T12:02:34;98587.97;;;11.54
11926;BMP180;6022;48.768;18.608;2024-03-08T12:05:06;98582.94;;;11.66
11926;BMP180;6022;48.768;18.608;2024-03-08T12:07:38;98575.19;;;11.55
11926;BMP180;6022;48.768;18.608;2024-03-08T12:10:16;98569.81;;;11.72
11926;BMP180;6022;48.768;18.608;2024-03-08T12:12:57;98574.28;;;11.81
11926;BMP180;6022;48.768;18.608;2024-03-08T12:15:37;98574.81;;;11.73
11926;BMP180;6022;48.768;18.608;2024-03-08T12:18:52;98571.31;;;11.62
11926;BMP180;6022;48.768;18.608;2024-03-08T12:21:30;98576.47;;;11.48
11926;BMP180;6022;48.768;18.608;2024-03-08T12:24:15;98584.03;;;11.36
11926;BMP180;6022;48.768;18.608;2024-03-08T12:26:52;98580.13;;;11.18
11926;BMP180;6022;48.768;18.608;2024-03-08T12:29:27;98570.47;;;11.11
11926;BMP180;6022;48.768;18.608;2024-03-08T12:31:59;98573.06;;;10.97
11926;BMP180;6022;48.768;18.608;2024-03-08T12:34:29;98570.69;;;10.94
11926;BMP180;6022;48.768;18.608;2024-03-08T12:49:07;98571.91;;;10.49
11926;BMP180;6022;48.768;18.608;2024-03-08T13:10:15;98574.97;;;10.12
11926;BMP180;6022;48.768;18.608;2024-03-08T13:13:18;98574.25;;;10.10
11926;BMP180;6022;48.768;18.608;2024-03-08T13:15:47;98570.84;;;10.11
11926;BMP180;6022;48.768;18.608;2024-03-08T13:18:35;98565.13;;;10.08
11926;BMP180;6022;48.768;18.608;2024-03-08T13:21:45;98568.38;;;10.10
11926;BMP180;6022;48.768;18.608;2024-03-08T13:24:28;98567.38;;;10.12
11926;BMP180;6022;48.768;18.608;2024-03-08T13:27:38;98568.31;;;10.11
11926;BMP180;6022;48.768;18.608;2024-03-08T13:30:58;98570.84;;;10.11
11926;BMP180;6022;48.768;18.608;2024-03-08T13:34:17;98564.75;;;10.14
11926;BMP180;6022;48.768;18.608;2024-03-08T13:37:49;98560.34;;;10.17
11926;BMP180;6022;48.768;18.608;2024-03-08T13:50:10;98560.69;;;10.25
11926;BMP180;6022;48.768;18.608;2024-03-08T13:53:18;98559.31;;;10.19
11926;BMP180;6022;48.768;18.608;2024-03-08T13:55:55;98558.34;;;10.22
11926;BMP180;6022;48.768;18.608;2024-03-08T13:58:25;98554.16;;;10.21
11926;BMP180;6022;48.768;18.608;2024-03-08T14:09:26;98551.25;;;9.99
11926;BMP180;6022;48.768;18.608;2024-03-08T14:12:10;98555.81;;;9.94
11926;BMP180;6022;48.768;18.608;2024-03-08T14:18:43;98548.41;;;9.76
11926;BMP180;6022;48.768;18.608;2024-03-08T14:21:12;98552.69;;;9.76
11926;BMP180;6022;48.768;18.608;2024-03-08T14:23:44;98553.94;;;9.69
11926;BMP180;6022;48.768;18.608;2024-03-08T14:26:18;98554.22;;;9.64
11926;BMP180;6022;48.768;18.608;2024-03-08T14:28:49;98556.66;;;9.66
11926;BMP180;6022;48.768;18.608;2024-03-08T14:31:22;98561.09;;;9.62
11926;BMP180;6022;48.768;18.608;2024-03-08T14:33:54;98556.09;;;9.61
11926;BMP180;6022;48.768;18.608;2024-03-08T14:36:38;98547.84;;;9.57
11926;BMP180;6022;48.768;18.608;2024-03-08T14:39:09;98549.00;;;9.52
11926;BMP180;6022;48.768;18.608;2024-03-08T14:41:39;98550.19;;;9.46
11926;BMP180;6022;48.768;18.608;2024-03-08T14:44:10;98549.28;;;9.47
11926;BMP180;6022;48.768;18.608;2024-03-08T14:46:42;98549.38;;;9.46
11926;BMP180;6022;48.768;18.608;2024-03-08T14:49:11;98546.28;;;9.41
11926;BMP180;6022;48.768;18.608;2024-03-08T14:51:39;98552.34;;;9.39
11926;BMP180;6022;48.768;18.608;2024-03-08T14:54:10;98550.81;;;9.36
11926;BMP180;6022;48.768;18.608;2024-03-08T14:56:45;98548.44;;;9.33
11926;BMP180;6022;48.768;18.608;2024-03-08T14:59:26;98541.84;;;9.31
11926;BMP180;6022;48.768;18.608;2024-03-08T15:01:59;98550.06;;;9.34
11926;BMP180;6022;48.768;18.608;2024-03-08T15:04:29;98533.25;;;9.33
11926;BMP180;6022;48.768;18.608;2024-03-08T15:07:03;98534.41;;;9.28
11926;BMP180;6022;48.768;18.608;2024-03-08T15:09:33;98529.19;;;9.31
11926;BMP180;6022;48.768;18.608;2024-03-08T15:12:08;98531.78;;;9.29
11926;BMP180;6022;48.768;18.608;2024-03-08T15:14:42;98535.41;;;9.25
11926;BMP180;6022;48.768;18.608;2024-03-08T15:17:12;98526.88;;;9.26
11926;BMP180;6022;48.768;18.608;2024-03-08T15:19:49;98529.19;;;9.31
11926;BMP180;6022;48.768;18.608;2024-03-08T15:22:20;98528.97;;;9.34
11926;BMP180;6022;48.768;18.608;2024-03-08T15:24:49;98522.47;;;9.30
11926;BMP180;6022;48.768;18.608;2024-03-08T15:27:17;98532.06;;;9.25
11926;BMP180;6022;48.768;18.608;2024-03-08T15:29:46;98531.47;;;9.20
11926;BMP180;6022;48.768;18.608;2024-03-08T15:32:16;98528.69;;;9.24
11926;BMP180;6022;48.768;18.608;2024-03-08T15:34:49;98528.69;;;9.24
11926;BMP180;6022;48.768;18.608;2024-03-08T15:37:29;98530.69;;;9.19
11926;BMP180;6022;48.768;18.608;2024-03-08T15:39:57;98518.75;;;9.21
11926;BMP180;6022;48.768;18.608;2024-03-08T15:42:25;98534.59;;;9.25
11926;BMP180;6022;48.768;18.608;2024-03-08T15:44:54;98518.69;;;9.23
11926;BMP180;6022;48.768;18.608;2024-03-08T15:47:47;98520.38;;;9.22
11926;BMP180;6022;48.768;18.608;2024-03-08T15:50:54;98525.97;;;9.13
11926;BMP180;6022;48.768;18.608;2024-03-08T15:53:24;98529.94;;;9.17
11926;BMP180;6022;48.768;18.608;2024-03-08T15:55:53;98527.66;;;9.13
11926;BMP180;6022;48.768;18.608;2024-03-08T15:58:21;98539.59;;;9.11
11926;BMP180;6022;48.768;18.608;2024-03-08T16:00:51;98520.34;;;9.08
11926;BMP180;6022;48.768;18.608;2024-03-08T16:03:23;98533.00;;;9.08
11926;BMP180;6022;48.768;18.608;2024-03-08T16:05:53;98527.28;;;9.05
11926;BMP180;6022;48.768;18.608;2024-03-08T16:08:24;98531.53;;;9.04
11926;BMP180;6022;48.768;18.608;2024-03-08T16:10:54;98533.50;;;9.00
11926;BMP180;6022;48.768;18.608;2024-03-08T16:13:51;98533.09;;;8.92
11926;BMP180;6022;48.768;18.608;2024-03-08T16:16:21;98538.16;;;8.92
11926;BMP180;6022;48.768;18.608;2024-03-08T16:18:54;98539.22;;;8.88